sensor_id;sensor_type;location;lat;lon;timestamp;P1;durP1;ratioP1;P2;durP2;ratioP2
40807;SDS011;26523;52.504;13.498;2023-07-20T00:02:14;6.07;;;3.10;;
40807;SDS011;26523;52.504;13.498;2023-07-20T00:04:40;4.45;;;2.67;;
40807;SDS011;26523;52.504;13.498;2023-07-20T00:07:07;6.45;;;2.70;;
40807;SDS011;26523;52.504;13.498;2023-07-20T00:09:32;10.23;;;2.95;;
40807;SDS011;26523;52.504;13.498;2023-07-20T00:11:59;5.50;;;3.20;;
40807;SDS011;26523;52.504;13.498;2023-07-20T00:14:25;6.38;;;2.83;;
40807;SDS011;26523;52.504;13.498;2023-07-20T00:16:54;6.28;;;3.40;;
40807;SDS011;26523;52.504;13.498;2023-07-20T00:19:25;6.05;;;3.20;;
40807;SDS011;26523;52.504;13.498;2023-07-20T00:21:52;5.75;;;3.70;;
40807;SDS011;26523;52.504;13.498;2023-07-20T00:24:20;7.18;;;3.60;;
40807;SDS011;26523;52.504;13.498;2023-07-20T00:26:45;8.15;;;3.30;;
40807;SDS011;26523;52.504;13.498;2023-07-20T00:29:12;5.00;;;3.20;;
40807;SDS011;26523;52.504;13.498;2023-07-20T00:31:38;12.30;;;3.60;;
40807;SDS011;26523;52.504;13.498;2023-07-20T00:34:04;5.97;;;3.30;;
40807;SDS011;26523;52.504;13.498;2023-07-20T00:36:30;6.32;;;3.40;;
40807;SDS011;26523;52.504;13.498;2023-07-20T00:38:58;6.20;;;3.83;;
40807;SDS011;26523;52.504;13.498;2023-07-20T00:41:23;11.13;;;3.72;;
40807;SDS011;26523;52.504;13.498;2023-07-20T00:43:50;7.28;;;3.40;;
40807;SDS011;26523;52.504;13.498;2023-07-20T00:46:15;6.10;;;3.10;;
40807;SDS011;26523;52.504;13.498;2023-07-20T00:48:41;5.18;;;3.30;;
40807;SDS011;26523;52.504;13.498;2023-07-20T00:51:09;7.47;;;3.65;;
40807;SDS011;26523;52.504;13.498;2023-07-20T00:53:38;4.05;;;2.75;;
40807;SDS011;26523;52.504;13.498;2023-07-20T00:56:05;12.98;;;3.85;;
40807;SDS011;26523;52.504;13.498;2023-07-20T00:58:33;7.00;;;3.55;;
40807;SDS011;26523;52.504;13.498;2023-07-20T01:00:59;5.13;;;3.05;;
40807;SDS011;26523;52.504;13.498;2023-07-20T01:03:25;11.13;;;3.53;;
40807;SDS011;26523;52.504;13.498;2023-07-20T01:05:54;5.65;;;3.47;;
40807;SDS011;26523;52.504;13.498;2023-07-20T01:08:37;5.28;;;3.47;;
40807;SDS011;26523;52.504;13.498;2023-07-20T01:11:22;5.35;;;2.97;;
40807;SDS011;26523;52.504;13.498;2023-07-20T01:13:56;7.90;;;3.92;;
40807;SDS011;26523;52.504;13.498;2023-07-20T01:16:24;9.38;;;3.45;;
40807;SDS011;26523;52.504;13.498;2023-07-20T01:18:51;6.25;;;3.45;;
40807;SDS011;26523;52.504;13.498;2023-07-20T01:21:21;5.60;;;3.50;;
40807;SDS011;26523;52.504;13.498;2023-07-20T01:29:43;6.82;;;3.72;;
40807;SDS011;26523;52.504;13.498;2023-07-20T01:32:30;6.03;;;3.35;;
40807;SDS011;26523;52.504;13.498;2023-07-20T01:34:58;5.65;;;3.78;;
40807;SDS011;26523;52.504;13.498;2023-07-20T01:37:24;7.10;;;3.80;;
40807;SDS011;26523;52.504;13.498;2023-07-20T01:39:55;5.35;;;3.30;;
40807;SDS011;26523;52.504;13.498;2023-07-20T01:42:24;7.97;;;3.95;;
40807;SDS011;26523;52.504;13.498;2023-07-20T01:44:52;6.75;;;4.03;;
40807;SDS011;26523;52.504;13.498;2023-07-20T01:47:20;8.15;;;4.22;;
40807;SDS011;26523;52.504;13.498;2023-07-20T01:49:47;12.52;;;4.20;;
40807;SDS011;26523;52.504;13.498;2023-07-20T01:52:14;8.52;;;3.83;;
40807;SDS011;26523;52.504;13.498;2023-07-20T01:54:41;6.05;;;3.47;;
40807;SDS011;26523;52.504;13.498;2023-07-20T01:57:09;5.70;;;3.63;;
40807;SDS011;26523;52.504;13.498;2023-07-20T01:59:36;6.85;;;3.97;;
40807;SDS011;26523;52.504;13.498;2023-07-20T02:02:02;7.60;;;4.35;;
40807;SDS011;26523;52.504;13.498;2023-07-20T02:04:29;9.07;;;4.53;;
40807;SDS011;26523;52.504;13.498;2023-07-20T02:06:55;7.30;;;4.28;;
40807;SDS011;26523;52.504;13.498;2023-07-20T02:09:21;7.07;;;4.20;;
40807;SDS011;26523;52.504;13.498;2023-07-20T02:11:48;6.97;;;4.30;;
40807;SDS011;26523;52.504;13.498;2023-07-20T02:14:15;7.22;;;4.82;;
40807;SDS011;26523;52.504;13.498;2023-07-20T02:16:40;9.02;;;4.38;;
40807;SDS011;26523;52.504;13.498;2023-07-20T02:19:06;8.98;;;4.82;;
40807;SDS011;26523;52.504;13.498;2023-07-20T02:21:32;9.23;;;4.70;;
40807;SDS011;26523;52.504;13.498;2023-07-20T02:23:58;7.97;;;4.30;;
40807;SDS011;26523;52.504;13.498;2023-07-20T02:26:25;8.65;;;4.72;;
40807;SDS011;26523;52.504;13.498;2023-07-20T02:28:51;6.63;;;3.97;;
40807;SDS011;26523;52.504;13.498;2023-07-20T02:31:17;9.43;;;4.68;;
40807;SDS011;26523;52.504;13.498;2023-07-20T02:33:42;7.53;;;4.32;;
40807;SDS011;26523;52.504;13.498;2023-07-20T02:36:10;9.15;;;4.25;;
40807;SDS011;26523;52.504;13.498;2023-07-20T02:38:40;9.07;;;3.75;;
40807;SDS011;26523;52.504;13.498;2023-07-20T02:41:05;9.40;;;4.15;;
40807;SDS011;26523;52.504;13.498;2023-07-20T02:43:32;9.07;;;4.18;;
40807;SDS011;26523;52.504;13.498;2023-07-20T02:46:00;7.90;;;4.47;;
40807;SDS011;26523;52.504;13.498;2023-07-20T02:48:26;7.43;;;4.68;;
40807;SDS011;26523;52.504;13.498;2023-07-20T02:50:51;9.57;;;4.90;;
40807;SDS011;26523;52.504;13.498;2023-07-20T02:53:17;10.70;;;6.60;;
40807;SDS011;26523;52.504;13.498;2023-07-20T02:55:45;8.82;;;6.03;;
40807;SDS011;26523;52.504;13.498;2023-07-20T02:58:13;8.63;;;5.90;;
40807;SDS011;26523;52.504;13.498;2023-07-20T03:00:39;8.63;;;6.35;;
40807;SDS011;26523;52.504;13.498;2023-07-20T03:03:09;11.25;;;6.80;;
40807;SDS011;26523;52.504;13.498;2023-07-20T03:05:41;13.38;;;7.07;;
40807;SDS011;26523;52.504;13.498;2023-07-20T03:08:09;11.25;;;6.85;;
40807;SDS011;26523;52.504;13.498;2023-07-20T03:10:41;13.77;;;7.05;;
40807;SDS011;26523;52.504;13.498;2023-07-20T03:13:10;11.67;;;6.13;;
40807;SDS011;26523;52.504;13.498;2023-07-20T03:15:40;9.73;;;7.13;;
40807;SDS011;26523;52.504;13.498;2023-07-20T03:18:10;9.27;;;6.57;;
40807;SDS011;26523;52.504;13.498;2023-07-20T03:20:36;11.73;;;7.15;;
40807;SDS011;26523;52.504;13.498;2023-07-20T03:23:03;11.07;;;6.25;;
40807;SDS011;26523;52.504;13.498;2023-07-20T03:25:29;13.13;;;6.75;;
40807;SDS011;26523;52.504;13.498;2023-07-20T03:27:56;12.10;;;7.18;;
40807;SDS011;26523;52.504;13.498;2023-07-20T03:30:23;11.02;;;6.60;;
40807;SDS011;26523;52.504;13.498;2023-07-20T03:32:48;15.60;;;7.28;;
40807;SDS011;26523;52.504;13.498;2023-07-20T03:35:14;12.88;;;7.68;;
40807;SDS011;26523;52.504;13.498;2023-07-20T03:37:40;12.48;;;7.32;;
40807;SDS011;26523;52.504;13.498;2023-07-20T03:40:07;11.43;;;7.28;;
40807;SDS011;26523;52.504;13.498;2023-07-20T03:42:35;11.02;;;7.03;;
40807;SDS011;26523;52.504;13.498;2023-07-20T03:45:01;15.10;;;7.63;;
40807;SDS011;26523;52.504;13.498;2023-07-20T03:47:27;16.35;;;7.75;;
40807;SDS011;26523;52.504;13.498;2023-07-20T03:49:53;12.07;;;7.20;;
40807;SDS011;26523;52.504;13.498;2023-07-20T03:52:20;12.07;;;7.13;;
40807;SDS011;26523;52.504;13.498;2023-07-20T03:54:46;9.73;;;6.32;;
40807;SDS011;26523;52.504;13.498;2023-07-20T03:57:12;12.80;;;7.53;;
40807;SDS011;26523;52.504;13.498;2023-07-20T03:59:44;10.77;;;6.60;;
40807;SDS011;26523;52.504;13.498;2023-07-20T04:02:11;9.98;;;7.05;;
40807;SDS011;26523;52.504;13.498;2023-07-20T04:04:36;14.63;;;7.45;;
40807;SDS011;26523;52.504;13.498;2023-07-20T04:07:02;9.50;;;7.03;;
40807;SDS011;26523;52.504;13.498;2023-07-20T04:09:28;11.27;;;6.30;;
40807;SDS011;26523;52.504;13.498;2023-07-20T04:11:54;10.27;;;6.40;;
40807;SDS011;26523;52.504;13.498;2023-07-20T04:14:23;10.40;;;6.50;;
40807;SDS011;26523;52.504;13.498;2023-07-20T04:16:49;12.82;;;5.78;;
40807;SDS011;26523;52.504;13.498;2023-07-20T04:19:16;11.50;;;6.97;;
40807;SDS011;26523;52.504;13.498;2023-07-20T04:21:44;10.05;;;6.82;;
40807;SDS011;26523;52.504;13.498;2023-07-20T04:24:10;10.68;;;6.45;;
40807;SDS011;26523;52.504;13.498;2023-07-20T04:26:38;10.20;;;6.30;;
40807;SDS011;26523;52.504;13.498;2023-07-20T04:29:04;12.60;;;6.60;;
40807;SDS011;26523;52.504;13.498;2023-07-20T04:31:29;9.30;;;6.65;;
40807;SDS011;26523;52.504;13.498;2023-07-20T04:33:58;11.13;;;6.88;;
40807;SDS011;26523;52.504;13.498;2023-07-20T04:36:25;12.00;;;7.20;;
40807;SDS011;26523;52.504;13.498;2023-07-20T04:38:52;17.17;;;9.90;;
40807;SDS011;26523;52.504;13.498;2023-07-20T04:41:18;10.40;;;7.15;;
40807;SDS011;26523;52.504;13.498;2023-07-20T04:43:44;9.40;;;6.45;;
40807;SDS011;26523;52.504;13.498;2023-07-20T04:46:10;13.30;;;6.45;;
40807;SDS011;26523;52.504;13.498;2023-07-20T04:48:37;12.18;;;7.07;;
40807;SDS011;26523;52.504;13.498;2023-07-20T04:51:03;9.90;;;6.22;;
40807;SDS011;26523;52.504;13.498;2023-07-20T04:53:29;12.05;;;7.13;;
40807;SDS011;26523;52.504;13.498;2023-07-20T04:55:56;10.50;;;6.25;;
40807;SDS011;26523;52.504;13.498;2023-07-20T04:58:22;9.45;;;6.57;;
40807;SDS011;26523;52.504;13.498;2023-07-20T05:00:49;11.02;;;6.15;;
40807;SDS011;26523;52.504;13.498;2023-07-20T05:03:15;11.73;;;7.18;;
40807;SDS011;26523;52.504;13.498;2023-07-20T05:05:41;11.38;;;6.95;;
40807;SDS011;26523;52.504;13.498;2023-07-20T05:08:07;8.88;;;5.63;;
40807;SDS011;26523;52.504;13.498;2023-07-20T05:10:33;12.32;;;7.20;;
40807;SDS011;26523;52.504;13.498;2023-07-20T05:12:59;12.25;;;7.15;;
40807;SDS011;26523;52.504;13.498;2023-07-20T05:15:25;10.60;;;6.57;;
40807;SDS011;26523;52.504;13.498;2023-07-20T05:17:51;10.57;;;6.38;;
40807;SDS011;26523;52.504;13.498;2023-07-20T05:20:18;9.98;;;5.97;;
40807;SDS011;26523;52.504;13.498;2023-07-20T05:22:48;9.57;;;5.97;;
40807;SDS011;26523;52.504;13.498;2023-07-20T05:25:13;9.13;;;6.05;;
40807;SDS011;26523;52.504;13.498;2023-07-20T05:27:39;8.35;;;5.55;;
40807;SDS011;26523;52.504;13.498;2023-07-20T05:30:06;9.60;;;5.68;;
40807;SDS011;26523;52.504;13.498;2023-07-20T05:32:33;11.80;;;5.90;;
40807;SDS011;26523;52.504;13.498;2023-07-20T05:34:59;7.90;;;4.75;;
40807;SDS011;26523;52.504;13.498;2023-07-20T05:37:25;14.70;;;5.90;;
40807;SDS011;26523;52.504;13.498;2023-07-20T05:39:51;10.15;;;4.75;;
40807;SDS011;26523;52.504;13.498;2023-07-20T05:42:19;8.13;;;4.22;;
40807;SDS011;26523;52.504;13.498;2023-07-20T05:44:45;9.75;;;3.65;;
40807;SDS011;26523;52.504;13.498;2023-07-20T05:47:21;9.98;;;3.88;;
40807;SDS011;26523;52.504;13.498;2023-07-20T05:49:46;10.23;;;3.13;;
40807;SDS011;26523;52.504;13.498;2023-07-20T05:52:14;12.52;;;4.40;;
40807;SDS011;26523;52.504;13.498;2023-07-20T05:54:40;10.68;;;3.58;;
40807;SDS011;26523;52.504;13.498;2023-07-20T05:57:05;9.00;;;3.63;;
40807;SDS011;26523;52.504;13.498;2023-07-20T05:59:33;14.88;;;3.95;;
40807;SDS011;26523;52.504;13.498;2023-07-20T06:01:59;8.38;;;3.55;;
40807;SDS011;26523;52.504;13.498;2023-07-20T06:04:25;5.00;;;3.45;;
40807;SDS011;26523;52.504;13.498;2023-07-20T06:06:52;6.85;;;3.47;;
40807;SDS011;26523;52.504;13.498;2023-07-20T06:09:17;5.60;;;3.35;;
40807;SDS011;26523;52.504;13.498;2023-07-20T06:11:44;6.35;;;2.95;;
40807;SDS011;26523;52.504;13.498;2023-07-20T06:14:11;5.22;;;3.05;;
40807;SDS011;26523;52.504;13.498;2023-07-20T06:16:40;8.00;;;2.95;;
40807;SDS011;26523;52.504;13.498;2023-07-20T06:19:08;7.18;;;3.50;;
40807;SDS011;26523;52.504;13.498;2023-07-20T06:21:36;8.27;;;3.58;;
40807;SDS011;26523;52.504;13.498;2023-07-20T06:24:04;6.15;;;3.38;;
40807;SDS011;26523;52.504;13.498;2023-07-20T06:26:31;7.07;;;3.63;;
40807;SDS011;26523;52.504;13.498;2023-07-20T06:29:03;9.10;;;4.00;;
40807;SDS011;26523;52.504;13.498;2023-07-20T06:31:28;6.45;;;3.70;;
40807;SDS011;26523;52.504;13.498;2023-07-20T06:33:54;7.55;;;3.97;;
40807;SDS011;26523;52.504;13.498;2023-07-20T06:36:20;13.25;;;4.30;;
40807;SDS011;26523;52.504;13.498;2023-07-20T06:38:47;5.97;;;3.38;;
40807;SDS011;26523;52.504;13.498;2023-07-20T06:41:13;8.65;;;3.50;;
40807;SDS011;26523;52.504;13.498;2023-07-20T06:43:40;8.52;;;3.45;;
40807;SDS011;26523;52.504;13.498;2023-07-20T06:46:05;4.43;;;2.90;;
40807;SDS011;26523;52.504;13.498;2023-07-20T06:48:31;9.68;;;2.85;;
40807;SDS011;26523;52.504;13.498;2023-07-20T06:50:56;6.50;;;2.58;;
40807;SDS011;26523;52.504;13.498;2023-07-20T06:53:23;5.38;;;1.92;;
40807;SDS011;26523;52.504;13.498;2023-07-20T06:55:49;8.50;;;2.53;;
40807;SDS011;26523;52.504;13.498;2023-07-20T06:58:16;3.95;;;2.03;;
40807;SDS011;26523;52.504;13.498;2023-07-20T07:00:46;6.65;;;2.05;;
40807;SDS011;26523;52.504;13.498;2023-07-20T07:03:12;8.20;;;2.58;;
40807;SDS011;26523;52.504;13.498;2023-07-20T07:05:38;6.28;;;2.28;;
40807;SDS011;26523;52.504;13.498;2023-07-20T07:08:05;4.28;;;1.90;;
40807;SDS011;26523;52.504;13.498;2023-07-20T07:10:35;5.55;;;1.92;;
40807;SDS011;26523;52.504;13.498;2023-07-20T07:13:01;5.57;;;1.90;;
40807;SDS011;26523;52.504;13.498;2023-07-20T07:15:27;3.60;;;1.98;;
40807;SDS011;26523;52.504;13.498;2023-07-20T07:17:54;7.32;;;1.85;;
40807;SDS011;26523;52.504;13.498;2023-07-20T07:20:22;4.65;;;1.45;;
40807;SDS011;26523;52.504;13.498;2023-07-20T07:22:52;6.60;;;1.70;;
40807;SDS011;26523;52.504;13.498;2023-07-20T07:25:18;5.50;;;1.42;;
40807;SDS011;26523;52.504;13.498;2023-07-20T07:27:44;6.95;;;1.40;;
40807;SDS011;26523;52.504;13.498;2023-07-20T07:30:11;4.88;;;1.13;;
40807;SDS011;26523;52.504;13.498;2023-07-20T07:32:37;5.00;;;1.40;;
40807;SDS011;26523;52.504;13.498;2023-07-20T07:35:04;2.10;;;1.00;;
40807;SDS011;26523;52.504;13.498;2023-07-20T07:37:30;3.17;;;0.80;;
40807;SDS011;26523;52.504;13.498;2023-07-20T07:39:56;5.78;;;1.60;;
40807;SDS011;26523;52.504;13.498;2023-07-20T07:42:22;3.25;;;0.93;;
40807;SDS011;26523;52.504;13.498;2023-07-20T07:44:48;2.78;;;0.98;;
40807;SDS011;26523;52.504;13.498;2023-07-20T07:47:16;2.28;;;0.90;;
40807;SDS011;26523;52.504;13.498;2023-07-20T07:49:43;3.95;;;0.90;;
40807;SDS011;26523;52.504;13.498;2023-07-20T07:52:09;1.77;;;0.90;;
40807;SDS011;26523;52.504;13.498;2023-07-20T07:54:34;3.05;;;0.63;;
40807;SDS011;26523;52.504;13.498;2023-07-20T07:57:02;1.65;;;0.55;;
40807;SDS011;26523;52.504;13.498;2023-07-20T07:59:29;4.72;;;0.80;;
40807;SDS011;26523;52.504;13.498;2023-07-20T08:01:56;4.68;;;1.10;;
40807;SDS011;26523;52.504;13.498;2023-07-20T08:04:25;2.40;;;0.90;;
40807;SDS011;26523;52.504;13.498;2023-07-20T08:06:50;4.28;;;0.65;;
40807;SDS011;26523;52.504;13.498;2023-07-20T08:09:16;1.80;;;0.60;;
40807;SDS011;26523;52.504;13.498;2023-07-20T08:11:43;2.17;;;0.75;;
40807;SDS011;26523;52.504;13.498;2023-07-20T08:14:09;1.98;;;0.75;;
40807;SDS011;26523;52.504;13.498;2023-07-20T08:16:38;2.85;;;0.70;;
40807;SDS011;26523;52.504;13.498;2023-07-20T08:19:04;4.00;;;0.98;;
40807;SDS011;26523;52.504;13.498;2023-07-20T08:21:30;2.22;;;0.73;;
40807;SDS011;26523;52.504;13.498;2023-07-20T08:23:56;5.10;;;0.93;;
40807;SDS011;26523;52.504;13.498;2023-07-20T08:26:22;4.28;;;1.00;;
40807;SDS011;26523;52.504;13.498;2023-07-20T08:28:50;2.20;;;0.80;;
40807;SDS011;26523;52.504;13.498;2023-07-20T08:31:16;1.90;;;0.80;;
40807;SDS011;26523;52.504;13.498;2023-07-20T08:33:43;1.60;;;0.80;;
40807;SDS011;26523;52.504;13.498;2023-07-20T08:36:09;3.38;;;0.80;;
40807;SDS011;26523;52.504;13.498;2023-07-20T08:38:37;1.38;;;0.60;;
40807;SDS011;26523;52.504;13.498;2023-07-20T08:41:06;1.48;;;0.60;;
40807;SDS011;26523;52.504;13.498;2023-07-20T08:43:33;1.52;;;0.80;;
40807;SDS011;26523;52.504;13.498;2023-07-20T08:46:00;1.88;;;0.77;;
40807;SDS011;26523;52.504;13.498;2023-07-20T08:48:29;1.77;;;0.40;;
40807;SDS011;26523;52.504;13.498;2023-07-20T08:50:56;0.90;;;0.60;;
40807;SDS011;26523;52.504;13.498;2023-07-20T08:53:23;3.55;;;0.77;;
40807;SDS011;26523;52.504;13.498;2023-07-20T08:55:50;3.13;;;0.63;;
40807;SDS011;26523;52.504;13.498;2023-07-20T08:58:17;3.08;;;0.90;;
40807;SDS011;26523;52.504;13.498;2023-07-20T09:00:43;2.45;;;0.95;;
40807;SDS011;26523;52.504;13.498;2023-07-20T09:03:10;2.25;;;0.60;;
40807;SDS011;26523;52.504;13.498;2023-07-20T09:05:36;4.28;;;0.60;;
40807;SDS011;26523;52.504;13.498;2023-07-20T09:08:07;3.47;;;0.93;;
40807;SDS011;26523;52.504;13.498;2023-07-20T09:10:32;1.40;;;0.50;;
40807;SDS011;26523;52.504;13.498;2023-07-20T09:12:59;2.65;;;1.20;;
40807;SDS011;26523;52.504;13.498;2023-07-20T09:15:25;1.52;;;0.68;;
40807;SDS011;26523;52.504;13.498;2023-07-20T09:17:51;6.00;;;0.70;;
40807;SDS011;26523;52.504;13.498;2023-07-20T09:20:19;4.70;;;0.90;;
40807;SDS011;26523;52.504;13.498;2023-07-20T09:22:47;2.47;;;0.60;;
40807;SDS011;26523;52.504;13.498;2023-07-20T09:25:16;1.92;;;0.77;;
40807;SDS011;26523;52.504;13.498;2023-07-20T09:27:45;5.88;;;0.90;;
40807;SDS011;26523;52.504;13.498;2023-07-20T09:30:13;2.05;;;0.52;;
40807;SDS011;26523;52.504;13.498;2023-07-20T09:32:45;1.83;;;0.50;;
40807;SDS011;26523;52.504;13.498;2023-07-20T09:35:24;1.35;;;0.73;;
40807;SDS011;26523;52.504;13.498;2023-07-20T09:37:59;2.90;;;0.98;;
40807;SDS011;26523;52.504;13.498;2023-07-20T09:40:26;3.10;;;0.80;;
40807;SDS011;26523;52.504;13.498;2023-07-20T09:42:53;1.15;;;0.52;;
40807;SDS011;26523;52.504;13.498;2023-07-20T09:45:40;1.73;;;0.50;;
40807;SDS011;26523;52.504;13.498;2023-07-20T09:48:14;1.20;;;0.60;;
40807;SDS011;26523;52.504;13.498;2023-07-20T09:50:40;3.25;;;0.90;;
40807;SDS011;26523;52.504;13.498;2023-07-20T09:53:14;1.75;;;0.52;;
40807;SDS011;26523;52.504;13.498;2023-07-20T09:55:43;3.63;;;0.80;;
40807;SDS011;26523;52.504;13.498;2023-07-20T09:58:13;2.97;;;0.60;;
40807;SDS011;26523;52.504;13.498;2023-07-20T10:00:41;4.90;;;1.50;;
40807;SDS011;26523;52.504;13.498;2023-07-20T10:03:18;2.50;;;1.30;;
40807;SDS011;26523;52.504;13.498;2023-07-20T10:05:56;1.92;;;1.00;;
40807;SDS011;26523;52.504;13.498;2023-07-20T10:08:29;3.58;;;0.80;;
40807;SDS011;26523;52.504;13.498;2023-07-20T10:10:57;1.80;;;0.57;;
40807;SDS011;26523;52.504;13.498;2023-07-20T10:13:28;2.03;;;1.00;;
40807;SDS011;26523;52.504;13.498;2023-07-20T10:16:04;2.13;;;0.73;;
40807;SDS011;26523;52.504;13.498;2023-07-20T10:21:07;12.93;;;1.23;;
40807;SDS011;26523;52.504;13.498;2023-07-20T10:23:34;3.40;;;1.20;;
40807;SDS011;26523;52.504;13.498;2023-07-20T10:26:01;6.55;;;0.90;;
40807;SDS011;26523;52.504;13.498;2023-07-20T10:28:28;1.42;;;0.80;;
40807;SDS011;26523;52.504;13.498;2023-07-20T10:30:54;2.10;;;0.70;;
40807;SDS011;26523;52.504;13.498;2023-07-20T10:33:19;2.38;;;0.80;;
40807;SDS011;26523;52.504;13.498;2023-07-20T10:35:52;5.13;;;0.95;;
40807;SDS011;26523;52.504;13.498;2023-07-20T10:38:20;3.33;;;0.80;;
40807;SDS011;26523;52.504;13.498;2023-07-20T10:41:16;6.70;;;0.75;;
40807;SDS011;26523;52.504;13.498;2023-07-20T10:44:03;1.95;;;0.90;;
40807;SDS011;26523;52.504;13.498;2023-07-20T10:46:34;5.68;;;1.10;;
40807;SDS011;26523;52.504;13.498;2023-07-20T10:49:16;1.98;;;0.98;;
40807;SDS011;26523;52.504;13.498;2023-07-20T10:51:46;21.85;;;2.55;;
40807;SDS011;26523;52.504;13.498;2023-07-20T10:56:47;3.03;;;0.90;;
40807;SDS011;26523;52.504;13.498;2023-07-20T11:01:47;3.70;;;1.25;;
40807;SDS011;26523;52.504;13.498;2023-07-20T11:04:16;2.65;;;1.30;;
40807;SDS011;26523;52.504;13.498;2023-07-20T11:06:44;2.20;;;0.80;;
40807;SDS011;26523;52.504;13.498;2023-07-20T11:09:12;2.35;;;0.70;;
40807;SDS011;26523;52.504;13.498;2023-07-20T11:11:44;2.67;;;0.98;;
40807;SDS011;26523;52.504;13.498;2023-07-20T11:14:24;2.10;;;1.00;;
40807;SDS011;26523;52.504;13.498;2023-07-20T11:16:53;3.17;;;0.77;;
40807;SDS011;26523;52.504;13.498;2023-07-20T11:19:24;1.50;;;0.80;;
40807;SDS011;26523;52.504;13.498;2023-07-20T11:21:51;1.70;;;1.13;;
40807;SDS011;26523;52.504;13.498;2023-07-20T11:24:18;6.35;;;1.45;;
40807;SDS011;26523;52.504;13.498;2023-07-20T11:26:45;5.70;;;1.00;;
40807;SDS011;26523;52.504;13.498;2023-07-20T11:29:16;3.58;;;1.05;;
40807;SDS011;26523;52.504;13.498;2023-07-20T11:31:43;5.97;;;0.90;;
40807;SDS011;26523;52.504;13.498;2023-07-20T11:34:20;4.80;;;1.20;;
40807;SDS011;26523;52.504;13.498;2023-07-20T11:36:50;7.85;;;1.50;;
40807;SDS011;26523;52.504;13.498;2023-07-20T11:39:17;4.50;;;0.90;;
40807;SDS011;26523;52.504;13.498;2023-07-20T11:41:50;1.88;;;0.85;;
40807;SDS011;26523;52.504;13.498;2023-07-20T11:49:29;2.63;;;0.60;;
40807;SDS011;26523;52.504;13.498;2023-07-20T11:52:08;1.80;;;0.90;;
40807;SDS011;26523;52.504;13.498;2023-07-20T11:54:36;3.35;;;0.82;;
40807;SDS011;26523;52.504;13.498;2023-07-20T11:57:03;2.22;;;0.88;;
40807;SDS011;26523;52.504;13.498;2023-07-20T11:59:31;5.35;;;0.82;;
40807;SDS011;26523;52.504;13.498;2023-07-20T12:02:06;1.77;;;1.00;;
40807;SDS011;26523;52.504;13.498;2023-07-20T12:04:32;5.45;;;0.95;;
40807;SDS011;26523;52.504;13.498;2023-07-20T12:06:58;1.00;;;0.70;;
40807;SDS011;26523;52.504;13.498;2023-07-20T12:09:25;1.30;;;0.68;;
40807;SDS011;26523;52.504;13.498;2023-07-20T12:11:51;1.88;;;0.65;;
40807;SDS011;26523;52.504;13.498;2023-07-20T12:14:16;3.22;;;0.52;;
40807;SDS011;26523;52.504;13.498;2023-07-20T12:16:43;6.60;;;1.00;;
40807;SDS011;26523;52.504;13.498;2023-07-20T12:19:17;1.58;;;0.70;;
40807;SDS011;26523;52.504;13.498;2023-07-20T12:21:43;1.52;;;0.73;;
40807;SDS011;26523;52.504;13.498;2023-07-20T12:24:24;6.72;;;0.90;;
40807;SDS011;26523;52.504;13.498;2023-07-20T12:26:55;2.78;;;0.80;;
40807;SDS011;26523;52.504;13.498;2023-07-20T12:29:23;2.85;;;0.75;;
40807;SDS011;26523;52.504;13.498;2023-07-20T12:31:52;3.75;;;0.73;;
40807;SDS011;26523;52.504;13.498;2023-07-20T12:34:18;5.20;;;1.00;;
40807;SDS011;26523;52.504;13.498;2023-07-20T12:36:45;1.90;;;0.80;;
40807;SDS011;26523;52.504;13.498;2023-07-20T12:39:10;4.05;;;1.00;;
40807;SDS011;26523;52.504;13.498;2023-07-20T12:41:37;3.05;;;1.33;;
40807;SDS011;26523;52.504;13.498;2023-07-20T12:44:04;2.33;;;0.85;;
40807;SDS011;26523;52.504;13.498;2023-07-20T12:46:30;3.35;;;0.90;;
40807;SDS011;26523;52.504;13.498;2023-07-20T12:49:00;0.60;;;0.45;;
40807;SDS011;26523;52.504;13.498;2023-07-20T12:51:25;4.63;;;0.80;;
40807;SDS011;26523;52.504;13.498;2023-07-20T12:53:51;5.82;;;1.90;;
40807;SDS011;26523;52.504;13.498;2023-07-20T12:56:17;2.00;;;1.10;;
40807;SDS011;26523;52.504;13.498;2023-07-20T12:58:42;2.17;;;0.73;;
40807;SDS011;26523;52.504;13.498;2023-07-20T13:01:08;2.78;;;0.68;;
40807;SDS011;26523;52.504;13.498;2023-07-20T13:03:35;3.17;;;0.50;;
40807;SDS011;26523;52.504;13.498;2023-07-20T13:06:01;4.18;;;1.05;;
40807;SDS011;26523;52.504;13.498;2023-07-20T13:08:29;7.22;;;0.95;;
40807;SDS011;26523;52.504;13.498;2023-07-20T13:10:55;2.47;;;0.70;;
40807;SDS011;26523;52.504;13.498;2023-07-20T13:13:21;1.75;;;0.68;;
40807;SDS011;26523;52.504;13.498;2023-07-20T13:15:48;2.72;;;0.70;;
40807;SDS011;26523;52.504;13.498;2023-07-20T13:18:15;4.95;;;1.85;;
40807;SDS011;26523;52.504;13.498;2023-07-20T13:20:43;2.72;;;0.60;;
40807;SDS011;26523;52.504;13.498;2023-07-20T13:23:09;0.85;;;0.60;;
40807;SDS011;26523;52.504;13.498;2023-07-20T13:25:35;2.83;;;0.70;;
40807;SDS011;26523;52.504;13.498;2023-07-20T13:28:01;3.05;;;0.80;;
40807;SDS011;26523;52.504;13.498;2023-07-20T13:30:29;3.15;;;0.70;;
40807;SDS011;26523;52.504;13.498;2023-07-20T13:32:55;2.35;;;0.60;;
40807;SDS011;26523;52.504;13.498;2023-07-20T13:35:21;4.22;;;0.75;;
40807;SDS011;26523;52.504;13.498;2023-07-20T13:37:46;7.80;;;1.00;;
40807;SDS011;26523;52.504;13.498;2023-07-20T13:40:14;5.88;;;0.70;;
40807;SDS011;26523;52.504;13.498;2023-07-20T13:42:44;2.17;;;0.73;;
40807;SDS011;26523;52.504;13.498;2023-07-20T13:45:11;1.65;;;0.73;;
40807;SDS011;26523;52.504;13.498;2023-07-20T13:47:36;3.38;;;0.50;;
40807;SDS011;26523;52.504;13.498;2023-07-20T13:50:02;1.83;;;0.70;;
40807;SDS011;26523;52.504;13.498;2023-07-20T13:52:28;1.80;;;0.60;;
40807;SDS011;26523;52.504;13.498;2023-07-20T13:54:54;2.65;;;0.70;;
40807;SDS011;26523;52.504;13.498;2023-07-20T13:57:19;6.45;;;0.85;;
40807;SDS011;26523;52.504;13.498;2023-07-20T13:59:47;4.68;;;0.70;;
40807;SDS011;26523;52.504;13.498;2023-07-20T14:02:16;2.40;;;0.93;;
40807;SDS011;26523;52.504;13.498;2023-07-20T14:04:41;2.53;;;1.40;;
40807;SDS011;26523;52.504;13.498;2023-07-20T14:07:07;2.58;;;0.73;;
40807;SDS011;26523;52.504;13.498;2023-07-20T14:09:33;3.65;;;0.65;;
40807;SDS011;26523;52.504;13.498;2023-07-20T14:11:58;3.55;;;0.80;;
40807;SDS011;26523;52.504;13.498;2023-07-20T14:14:24;1.42;;;0.50;;
40807;SDS011;26523;52.504;13.498;2023-07-20T14:16:50;2.42;;;0.90;;
40807;SDS011;26523;52.504;13.498;2023-07-20T14:19:16;1.50;;;0.60;;
40807;SDS011;26523;52.504;13.498;2023-07-20T14:21:43;3.35;;;0.70;;
40807;SDS011;26523;52.504;13.498;2023-07-20T14:24:10;2.45;;;0.63;;
40807;SDS011;26523;52.504;13.498;2023-07-20T14:26:36;3.83;;;0.90;;
40807;SDS011;26523;52.504;13.498;2023-07-20T14:29:02;3.83;;;0.80;;
40807;SDS011;26523;52.504;13.498;2023-07-20T14:31:28;3.00;;;1.20;;
40807;SDS011;26523;52.504;13.498;2023-07-20T14:33:55;3.47;;;0.90;;
40807;SDS011;26523;52.504;13.498;2023-07-20T14:36:21;6.18;;;0.90;;
40807;SDS011;26523;52.504;13.498;2023-07-20T14:38:47;2.55;;;0.70;;
40807;SDS011;26523;52.504;13.498;2023-07-20T14:41:16;2.28;;;0.73;;
40807;SDS011;26523;52.504;13.498;2023-07-20T14:43:42;1.63;;;0.60;;
40807;SDS011;26523;52.504;13.498;2023-07-20T14:46:07;2.38;;;0.63;;
40807;SDS011;26523;52.504;13.498;2023-07-20T14:48:35;1.38;;;0.70;;
40807;SDS011;26523;52.504;13.498;2023-07-20T14:51:00;1.60;;;0.60;;
40807;SDS011;26523;52.504;13.498;2023-07-20T14:53:26;0.93;;;0.60;;
40807;SDS011;26523;52.504;13.498;2023-07-20T14:55:57;4.25;;;0.65;;